Nearby METAR Reports

 

KSJC - San Jose, California, USA
Distance from station: NØ 14km
Oppdatert: 22/10/2021 21:10
Hovedsaklig skyet
Hovedsaklig skyet
 Vind fra NNØ
Vind: NNØ 11 km/h
Temperatur: 18°C
Duggpunkt: 12°C
Fuktighet: 68%
Barometer: 1017.9 hPa
Clouds: Hovedsaklig skyet
Visibility: 16 km
Cloud details: Hovedsaklig skyet 762 m
Hovedsaklig skyet 914 m
Hovedsaklig skyet 2438 m
2021/10/22 19:10 KSJC 221910Z 02006KT 10SM BKN025 BKN030 BKN080 18/12 A3006 RMK AO2 T01780122
KNUQ - Moffett Nas/Mtn, California, USA
Distance from station: N 14km
Oppdatert: 22/10/2021 11:15
NOT Current
Overskyet
Overskyet
 Vind fra ØSØ
Vind: ØSØ 22 km/h
Temperatur: 18°C
Duggpunkt: 14°C
Fuktighet: 78%
Barometer: 1015.6 hPa
Clouds: Overskyet
Visibility: 16 km
Cloud details: Few Clouds 671 m
Overskyet 914 m
2021/10/22 09:15 KNUQ 220915Z AUTO 11012KT 10SM FEW022 OVC030 18/14 A2999 RMK AO2
 
KPAO - Palo Alto, California, USA
Distance from station: NNV 23km
Oppdatert: 22/10/2021 20:47
Hovedsaklig skyet
Hovedsaklig skyet
 Vind fra varies
Vind: varies 6 km/h
Temperatur: 16°C
Duggpunkt: 12°C
Fuktighet: 77%
Barometer: 1017.9 hPa
Clouds: Hovedsaklig skyet
Visibility: 16 km
Cloud details: Delvis skyet 366 m
Hovedsaklig skyet 914 m
2021/10/22 18:47 KPAO 221847Z VRB03KT 10SM SCT012 BKN030 16/12 A3006
KRHV - San Jose/Reid, California, USA
Distance from station: ØNØ 19km
Oppdatert: 22/10/2021 20:47
Hovedsaklig skyet
Hovedsaklig skyet
 Vind fra calm
Vind: Stille
Temperatur: 16°C
Duggpunkt: 13°C
Fuktighet: 83%
Barometer: 1017.9 hPa
Clouds: Hovedsaklig skyet
Visibility: 16 km
Cloud details: Delvis skyet 457 m
Hovedsaklig skyet 2438 m
2021/10/22 18:47 KRHV 221847Z 00000KT 10SM SCT015 BKN080 16/13 A3006
 
KOAK - Oakland, California, USA
Distance from station: NNV 50km
Oppdatert: 22/10/2021 20:53
Hovedsaklig skyet
Hovedsaklig skyet
 Vind fra VSV
Vind: VSV 6 km/h
Temperatur: 17°C
Duggpunkt: 13°C
Fuktighet: 77%
Barometer: 1018.3 hPa
Clouds: Hovedsaklig skyet
Visibility: 16 km
Cloud details: Delvis skyet 488 m
Delvis skyet 640 m
Hovedsaklig skyet 914 m
Hovedsaklig skyet 6096 m
2021/10/22 18:53 KOAK 221853Z 25003KT 10SM SCT016 SCT021 BKN030 BKN200 17/13 A3007 RMK AO2 RAE02 SLP180 P0000 T01670128
KSQL - San Carlos Airpo, California, USA
Distance from station: NV 34km
Oppdatert: 22/10/2021 20:54
Hovedsaklig skyet
Hovedsaklig skyet
 Vind fra calm
Vind: Stille
Temperatur: 15°C
Duggpunkt: 13°C
Fuktighet: 88%
Barometer: 1018.3 hPa
Clouds: Hovedsaklig skyet
Visibility: 16 km
Cloud details: Delvis skyet 488 m
Hovedsaklig skyet 640 m
Hovedsaklig skyet 884 m
2021/10/22 18:54 KSQL 221854Z 00000KT 10SM SCT016 BKN021 BKN029 15/13 A3007
 
KSFO - San Francisco, California, USA
Distance from station: NV 49km
Oppdatert: 22/10/2021 20:56
Hovedsaklig skyet
Hovedsaklig skyet
 Vind fra V
Vind: V 13 km/h
Temperatur: 16°C
Duggpunkt: 11°C
Fuktighet: 72%
Barometer: 1017.6 hPa
Clouds: Hovedsaklig skyet
Visibility: 16 km
Cloud details: Delvis skyet 640 m
Hovedsaklig skyet 823 m
Hovedsaklig skyet 1067 m
2021/10/22 18:56 KSFO 221856Z 28007KT 10SM SCT021 BKN027 BKN035 16/11 A3005 RMK AO2 SLP175 T01610111
KE16 - San Martin, California, USA
Distance from station: ØSØ 43km
Oppdatert: 22/10/2021 21:15
Overskyet
Overskyet
 Vind fra calm
Vind: Stille
Temperatur: 15°C
Duggpunkt: 13°C
Fuktighet: 88%
Barometer: 1018.3 hPa
Clouds: Overskyet
Visibility: 16 km
Cloud details: Delvis skyet 671 m
Hovedsaklig skyet 1250 m
Overskyet 1829 m
2021/10/22 19:15 KE16 221915Z AUTO 00000KT 10SM SCT022 BKN041 OVC060 15/13 A3007 RMK AO2
 
KWVI - Watsonville, California, USA
Distance from station: SSØ 44km
Oppdatert: 22/10/2021 21:14
Overskyet
Overskyet
 Vind fra SV
Vind: SV 11 km/h
Temperatur: 15°C
Duggpunkt: 13°C
Fuktighet: 88%
Barometer: 1017.9 hPa
Clouds: Overskyet
Visibility: 16 km
Cloud details: Few Clouds 732 m
Hovedsaklig skyet 914 m
Overskyet 2134 m
2021/10/22 19:14 KWVI 221914Z AUTO 22006KT 10SM FEW024 BKN030 OVC070 15/13 A3006 RMK AO2 T01500133
KHAF - Half Moon Bay, California, USA
Distance from station: VNV 50km
Oppdatert: 22/10/2021 21:15
Haze, Klart
Haze, Klart
 Vind fra S
Vind: S 9 km/h
Temperatur: 16°C
Duggpunkt: 13°C
Fuktighet: 83%
Barometer: 1017.9 hPa
Oversikt: Haze
Clouds: Klart
Visibility: 10 km
2021/10/22 19:15 KHAF 221915Z AUTO 19005KT 6SM HZ CLR 16/13 A3006 RMK AO2
 
KHWD - Hayward, California, USA
Distance from station: N 44km
Oppdatert: 22/10/2021 20:54
Delvis skyet
Delvis skyet
 Vind fra varies
Vind: varies 7 km/h
Temperatur: 17°C
Duggpunkt: 13°C
Fuktighet: 77%
Barometer: 1017.9 hPa
Clouds: Delvis skyet
Visibility: 16 km
Cloud details: Delvis skyet 488 m
Delvis skyet 671 m
2021/10/22 18:54 KHWD 221854Z VRB04KT 10SM SCT016 SCT022 17/13 A3006 RMK AO2 SLP187 T01670128
KLVK - Livermore, California, USA
Distance from station: NNØ 51km
Oppdatert: 22/10/2021 20:53
Hovedsaklig skyet
Hovedsaklig skyet
 Vind fra VSV
Vind: VSV 15 km/h
Temperatur: 16°C
Duggpunkt: 12°C
Fuktighet: 77%
Barometer: 1017.6 hPa
Clouds: Hovedsaklig skyet
Visibility: 16 km
Cloud details: Few Clouds 884 m
Hovedsaklig skyet 2591 m
2021/10/22 18:53 KLVK 221853Z 25008KT 10SM FEW029 BKN085 16/12 A3005 RMK AO2 SLP172 T01560122 $